Overseas Long Beach — WAAT — position and weather

sailwx.info

Track history (hours):
 
Tides and Currents Weather Stations Pressure Air Temp Water Temp Dewpoint Dewpoint Depression Visibility Wind Speed Wind Dir Waves Ship Positions

Overseas Long Beach

Owner: ASC Leasing II, Inc., Philadelphia, PA. More information available from US FCC via Universal Licensing System and Coast Guard Vessel Documentation Center.

Last reported at 2017-Jan-16 16:00 UTC. Time now 2017-Jan-17 00:54 UTC.
Position N 31°48' W 079°18'.

Length 181 m; draft 10.4 m.

Type: Tanker. MMSI: 367703000.

Wind from 230 at 10 knots

Barometer 1027.6 mb
Air temperature 23.0 ° C
Visibility: greater than 10.8 NM
Dewpoint 16.5 ° C

Date/timePositionNaut miles runAvg speedWind from/ knotsBaromVisibWave heightAir tempDewpointWater temp
2017-Jan-16 16:00N 31°48' W 079°18'53612.8 230 / 101027.610.8 23.016.5
2017-Jan-14 22:09N 39°35' W 073°55'914.2
2017-Jan-14 21:30N 39°44' W 073°52'2813.2
2017-Jan-14 19:25N 40°12' W 073°50'8 9.7
2017-Jan-14 18:33N 40°20' W 073°49'9 8.4
2017-Jan-14 17:32N 40°28' W 073°53'1010.4
2017-Jan-14 16:33N 40°36' W 074°02'6 6.6
2017-Jan-14 15:33N 40°39' W 074°10'4 3.8
2017-Jan-14 14:31N 40°35' W 074°13'0 0.0
2017-Jan-14 13:31N 40°35' W 074°13'0 0.0
2017-Jan-14 12:31N 40°35' W 074°13'0 0.0
2017-Jan-14 11:31N 40°35' W 074°13'0 0.0
2017-Jan-14 10:25N 40°35' W 074°13'0 0.0
2017-Jan-14 09:31N 40°35' W 074°13'0 0.0
2017-Jan-14 08:31N 40°35' W 074°13'0 0.0
2017-Jan-14 07:31N 40°35' W 074°13'0 0.0
2017-Jan-14 06:31N 40°35' W 074°13'0 0.0
2017-Jan-14 05:31N 40°35' W 074°13'0 0.0
2017-Jan-14 04:25N 40°35' W 074°13'0 0.0
2017-Jan-14 03:31N 40°35' W 074°13'0 0.0
2017-Jan-13 23:31N 40°35' W 074°13'0 0.0
2017-Jan-13 22:25N 40°35' W 074°13'0 0.0
2017-Jan-13 21:31N 40°35' W 074°13'0 0.0
2017-Jan-13 18:31N 40°35' W 074°13'0 0.0
2017-Jan-13 17:31N 40°35' W 074°13'0 0.0
2017-Jan-13 16:31N 40°35' W 074°13'0 0.0
2017-Jan-13 15:31N 40°35' W 074°13'0 0.0
2017-Jan-13 14:31N 40°35' W 074°13'0 0.0
2017-Jan-13 13:19N 40°35' W 074°13'0 0.0
2017-Jan-13 12:31N 40°35' W 074°13'0 0.0
2017-Jan-13 11:31N 40°35' W 074°13'0 0.0
2017-Jan-13 08:13N 40°35' W 074°13'0 0.0
2017-Jan-13 07:31N 40°35' W 074°13'0 0.0
2017-Jan-13 06:31N 40°35' W 074°13'0 0.0
2017-Jan-13 05:31N 40°35' W 074°13'0 0.0
2017-Jan-13 04:31N 40°35' W 074°13'0 0.0
2017-Jan-13 03:31N 40°35' W 074°13'0 0.0
2017-Jan-13 02:31N 40°35' W 074°13'0 0.0
2017-Jan-13 01:31N 40°35' W 074°13'0 0.0
2017-Jan-13 00:31N 40°35' W 074°13'0 0.0
2017-Jan-12 23:25N 40°35' W 074°13'0 0.0
2017-Jan-12 22:31N 40°35' W 074°13'0 0.0
2017-Jan-12 21:25N 40°35' W 074°13'0 0.0
2017-Jan-12 19:23N 40°35' W 074°13'3 3.4
2017-Jan-12 18:34N 40°33' W 074°15'4 3.6
2017-Jan-12 17:33N 40°30' W 074°12'10 9.7
2017-Jan-12 16:33N 40°29' W 073°59'8 8.1
2017-Jan-12 15:33N 40°24' W 073°51'13012.8
2017-Jan-12 05:24N 38°14' W 073°54'20715.5
2017-Jan-11 16:00N 34°54' W 075°00'40916.4 200 / 161031.7 2.2 18.016.3
2017-Jan-10 15:00N 29°18' W 079°36'14315.1 100 / 151032.410.8 19.0 9.6
2017-Jan-10 05:30N 26°55' W 079°47'3216.7
2017-Jan-10 03:33N 26°23' W 079°51'1616.5
2017-Jan-10 02:33N 26°07' W 079°55'1616.4
2017-Jan-10 01:33N 25°51' W 079°57'1615.9
2017-Jan-10 00:33N 25°35' W 079°57'1515.2
2017-Jan-09 23:33N 25°20' W 079°59'3 0.2
2017-Jan-09 08:33N 25°17' W 079°58'1111.6
2017-Jan-09 07:33N 25°28' W 079°56'1111.0
2017-Jan-09 06:33N 25°39' W 079°56'1110.9
2017-Jan-09 05:33N 25°50' W 079°57'1110.7
2017-Jan-09 04:33N 26°01' W 079°58'1110.7
2017-Jan-09 03:33N 26°11' W 079°59'1111.2
2017-Jan-09 02:33N 26°23' W 079°59'1211.6
2017-Jan-09 01:33N 26°34' W 079°58'1211.6
2017-Jan-09 00:33N 26°46' W 079°58'1312.8
2017-Jan-08 23:33N 26°59' W 079°57'11613.5
2017-Jan-08 15:00N 28°54' W 080°06'   350 / 251033.210.8 14.1 3.3
Track history (hours):
 
Tides and Currents Weather Stations Pressure Air Temp Water Temp Dewpoint Dewpoint Depression Visibility Wind Speed Wind Dir Waves Ship Positions

Overseas Long Beach

Owner: ASC Leasing II, Inc., Philadelphia, PA. More information available from US FCC via Universal Licensing System and Coast Guard Vessel Documentation Center.

Last reported at 2017-Jan-16 16:00 UTC. Time now 2017-Jan-17 00:54 UTC.
Position N 31°48' W 079°18'.

Length 181 m; draft 10.4 m.

Type: Tanker. MMSI: 367703000.

Wind from 230 at 10 knots

Barometer 1027.6 mb
Air temperature 23.0 ° C
Visibility: greater than 10.8 NM
Dewpoint 16.5 ° C

Date/timePositionNaut miles runAvg speedWind from/ knotsBaromVisibWave heightAir tempDewpointWater temp
2017-Jan-16 16:00N 31°48' W 079°18'53612.8 230 / 101027.610.8 23.016.5
2017-Jan-14 22:09N 39°35' W 073°55'914.2
2017-Jan-14 21:30N 39°44' W 073°52'2813.2
2017-Jan-14 19:25N 40°12' W 073°50'8 9.7
2017-Jan-14 18:33N 40°20' W 073°49'9 8.4
2017-Jan-14 17:32N 40°28' W 073°53'1010.4
2017-Jan-14 16:33N 40°36' W 074°02'6 6.6
2017-Jan-14 15:33N 40°39' W 074°10'4 3.8
2017-Jan-14 14:31N 40°35' W 074°13'0 0.0
2017-Jan-14 13:31N 40°35' W 074°13'0 0.0
2017-Jan-14 12:31N 40°35' W 074°13'0 0.0
2017-Jan-14 11:31N 40°35' W 074°13'0 0.0
2017-Jan-14 10:25N 40°35' W 074°13'0 0.0
2017-Jan-14 09:31N 40°35' W 074°13'0 0.0
2017-Jan-14 08:31N 40°35' W 074°13'0 0.0
2017-Jan-14 07:31N 40°35' W 074°13'0 0.0
2017-Jan-14 06:31N 40°35' W 074°13'0 0.0
2017-Jan-14 05:31N 40°35' W 074°13'0 0.0
2017-Jan-14 04:25N 40°35' W 074°13'0 0.0
2017-Jan-14 03:31N 40°35' W 074°13'0 0.0
2017-Jan-13 23:31N 40°35' W 074°13'0 0.0
2017-Jan-13 22:25N 40°35' W 074°13'0 0.0
2017-Jan-13 21:31N 40°35' W 074°13'0 0.0
2017-Jan-13 18:31N 40°35' W 074°13'0 0.0
2017-Jan-13 17:31N 40°35' W 074°13'0 0.0
2017-Jan-13 16:31N 40°35' W 074°13'0 0.0
2017-Jan-13 15:31N 40°35' W 074°13'0 0.0
2017-Jan-13 14:31N 40°35' W 074°13'0 0.0
2017-Jan-13 13:19N 40°35' W 074°13'0 0.0
2017-Jan-13 12:31N 40°35' W 074°13'0 0.0
2017-Jan-13 11:31N 40°35' W 074°13'0 0.0
2017-Jan-13 08:13N 40°35' W 074°13'0 0.0
2017-Jan-13 07:31N 40°35' W 074°13'0 0.0
2017-Jan-13 06:31N 40°35' W 074°13'0 0.0
2017-Jan-13 05:31N 40°35' W 074°13'0 0.0
2017-Jan-13 04:31N 40°35' W 074°13'0 0.0
2017-Jan-13 03:31N 40°35' W 074°13'0 0.0
2017-Jan-13 02:31N 40°35' W 074°13'0 0.0
2017-Jan-13 01:31N 40°35' W 074°13'0 0.0
2017-Jan-13 00:31N 40°35' W 074°13'0 0.0
2017-Jan-12 23:25N 40°35' W 074°13'0 0.0
2017-Jan-12 22:31N 40°35' W 074°13'0 0.0
2017-Jan-12 21:25N 40°35' W 074°13'0 0.0
2017-Jan-12 19:23N 40°35' W 074°13'3 3.4
2017-Jan-12 18:34N 40°33' W 074°15'4 3.6
2017-Jan-12 17:33N 40°30' W 074°12'10 9.7
2017-Jan-12 16:33N 40°29' W 073°59'8 8.1
2017-Jan-12 15:33N 40°24' W 073°51'13012.8
2017-Jan-12 05:24N 38°14' W 073°54'20715.5
2017-Jan-11 16:00N 34°54' W 075°00'40916.4 200 / 161031.7 2.2 18.016.3
2017-Jan-10 15:00N 29°18' W 079°36'14315.1 100 / 151032.410.8 19.0 9.6
2017-Jan-10 05:30N 26°55' W 079°47'3216.7
2017-Jan-10 03:33N 26°23' W 079°51'1616.5
2017-Jan-10 02:33N 26°07' W 079°55'1616.4
2017-Jan-10 01:33N 25°51' W 079°57'1615.9
2017-Jan-10 00:33N 25°35' W 079°57'1515.2
2017-Jan-09 23:33N 25°20' W 079°59'3 0.2
2017-Jan-09 08:33N 25°17' W 079°58'1111.6
2017-Jan-09 07:33N 25°28' W 079°56'1111.0
2017-Jan-09 06:33N 25°39' W 079°56'1110.9
2017-Jan-09 05:33N 25°50' W 079°57'1110.7
2017-Jan-09 04:33N 26°01' W 079°58'1110.7
2017-Jan-09 03:33N 26°11' W 079°59'1111.2
2017-Jan-09 02:33N 26°23' W 079°59'1211.6
2017-Jan-09 01:33N 26°34' W 079°58'1211.6
2017-Jan-09 00:33N 26°46' W 079°58'1312.8
2017-Jan-08 23:33N 26°59' W 079°57'11613.5
2017-Jan-08 15:00N 28°54' W 080°06'   350 / 251033.210.8 14.1 3.3

Dump ship's entire track history